McGuffey, OH (45859)

1:17 PM EST on March 01, 2017 (GMT -0500)
Ada | | Change Station
Active Advisory: Wind Advisory Active Notice: Public Information Statement

Elev 912 ft 40.82 °N, 83.86 °W | Updated 2 seconds ago

Overcast
Overcast
54.8 °F
Feels Like 54.8 °F
N
5.0
Wind Variable Wind from WSW
Gusts 26.0 mph

Today
High -- | Low -- °F
--% Chance of Precip.
Yesterday
High -- | Low -- °F
Precip. -- in
Pressure 29.53 in
Visibility 7.0 miles
Clouds Mostly Cloudy 2000 ft
Overcast 2600 ft
Dew Point 51 °F
Humidity 86%
Rainfall 0.46 in
Snow Depth Not available.
7:08 AM 6:26 PM
Waxing Crescent, 12% visible
METAR KEDJ 011730Z AUTO 25019G30KT 7SM BKN020 OVC026 12/10 A2953 RMK AO1
Pressure 29.53 in
Visibility 7.0 miles
Clouds Mostly Cloudy 2000 ft
Overcast 2600 ft
Dew Point 51 °F
Humidity 86%
Rainfall 0.46 in
Snow Depth Not available.
7:08 AM 6:26 PM
Waxing Crescent, 12% visible
METAR KEDJ 011730Z AUTO 25019G30KT 7SM BKN020 OVC026 12/10 A2953 RMK AO1

Get Your Daily Forecast Email!

Thanks for signing up!

Be on the lookout for a verification email in your inbox.

You'll start receiving the daily forecast at 8 AM.

×

10-Day Weather Forecast

Almanac

Astronomy

Mar. 01, 2017 Rise Set
Actual Time
Civil Twilight
Nautical Twilight
Astronomical Twilight
Moon
Length of Visible Light
Length of Day
Tomorrow will be .
, % of the Moon is Illuminated

Today's Extremes

State Highs State Lows

Community

WunderPhotos

Upload Photos

1,962,540 photos uploaded!

WunderBlog® & News

Nearby

Air Quality

  Air Quality AQ Index Pollutant
Not available.

Snow Depth

Station Depth Elevation

Earthquake Activity

City Distance Mag. Time & Date
Minimum magnitude displayed is 2.5.

Coastal Water Temperatures

Place Temperature

Stations

Nearby Weather Stations

Station Location Temp. Windchill Dew Point Humidity Wind Precip. Elev Updated Type
                   

Watches & Warnings

Wind Advisory
Issued: 10:29 AM EST Mar. 1, 2017 – National Weather Service

... Wind Advisory in effect until 1 am EST Thursday...

The National Weather Service in Wilmington has issued a Wind
Advisory... which is in effect until 1 am EST Thursday.

* Winds... west 15 to 25 mph with gusts 40 to 50 mph.

* Timing... winds will increase this afternoon. Wind gusts will
continue into tonight.

* Impacts... scattered tree and power line damage is possible
along with some minor property damage in the highest gusts.
Winds this strong can make driving difficult, especially for
high profile vehicles.

Precautionary/preparedness actions...

Secure loose outdoor objects. Drivers of high-profile vehicles or
trailers should exercise caution. The wind and wind gusts will
make difficult driving conditions.